City Of Freeport — WDC2648 — position and weather

sailwx.info

Track history (hours):
 
Tides and Currents Weather Stations Pressure Air Temp Water Temp Dewpoint Dewpoint Depression Visibility Wind Speed Wind Dir Waves Ship Positions

City Of Freeport

Owner: Kirby Inland Marine LP, Houston, TX. More information available from US FCC via Universal Licensing System and Coast Guard Vessel Documentation Center.

Last reported at 2018-Apr-24 16:00 UTC. Time now 2018-Apr-24 16:26 UTC.
Position N 29°60' W 093°55'.

Length 114 m; draft 2.3 m.

Type: . MMSI: 366995980.

Date/timePositionNaut miles runAvg speedWind from/ knotsBaromVisibWave heightAir tempDewpointWater temp
2018-Apr-24 16:00N 29°60' W 093°55'0 0.0
2018-Apr-24 15:30N 29°60' W 093°55'0 0.6
2018-Apr-24 15:00N 29°60' W 093°55'3 6.3
2018-Apr-24 14:30N 30°01' W 093°58'3 5.6
2018-Apr-24 14:00N 30°01' W 094°02'0 0.0
2018-Apr-24 13:30N 30°01' W 094°02'2 4.6
2018-Apr-24 13:00N 30°01' W 093°59'3 6.8
2018-Apr-24 12:30N 29°59' W 093°55'4 7.2
2018-Apr-24 12:00N 29°58' W 093°51'1 0.2
2018-Apr-24 09:11N 29°58' W 093°51'0 0.6
2018-Apr-24 09:00N 29°58' W 093°51'0 0.0
2018-Apr-24 08:30N 29°58' W 093°51'0 0.0
2018-Apr-24 08:00N 29°58' W 093°51'0 0.0
2018-Apr-24 07:31N 29°58' W 093°51'0 0.0
2018-Apr-24 07:00N 29°58' W 093°51'0 0.0
2018-Apr-24 06:31N 29°58' W 093°51'0 0.0
2018-Apr-24 06:01N 29°58' W 093°51'0 0.0
2018-Apr-24 05:31N 29°58' W 093°51'0 0.0
2018-Apr-24 05:00N 29°58' W 093°51'0 0.0
2018-Apr-24 04:29N 29°58' W 093°51'0 0.0
2018-Apr-24 04:00N 29°58' W 093°51'0 0.0
2018-Apr-24 03:31N 29°58' W 093°51'0 0.0
2018-Apr-24 03:01N 29°58' W 093°51'0 0.0
2018-Apr-24 02:30N 29°58' W 093°51'1 1.9
2018-Apr-24 02:00N 29°58' W 093°52'0 0.0
2018-Apr-24 01:30N 29°58' W 093°52'0 0.0
2018-Apr-24 01:01N 29°58' W 093°52'1 2.0
2018-Apr-24 00:28N 29°58' W 093°51'0 0.0
2018-Apr-23 23:58N 29°58' W 093°51'0 0.0
2018-Apr-23 23:28N 29°58' W 093°51'0 0.4
2018-Apr-23 23:00N 29°58' W 093°51'1 2.1
2018-Apr-23 22:30N 29°58' W 093°52'1 2.1
2018-Apr-23 22:00N 29°58' W 093°51'4 7.1
2018-Apr-23 21:30N 29°55' W 093°53'2 3.3
2018-Apr-23 21:00N 29°54' W 093°54'5 9.3
2018-Apr-23 20:30N 29°50' W 093°57'1 1.5
2018-Apr-23 20:00N 29°50' W 093°58'2 4.0
2018-Apr-23 19:30N 29°51' W 093°57'3 5.4
2018-Apr-23 19:00N 29°54' W 093°55'3 5.3
2018-Apr-23 18:30N 29°56' W 093°53'3 5.9
2018-Apr-23 18:00N 29°58' W 093°51'1 1.4
2018-Apr-23 17:30N 29°58' W 093°51'0 0.2
2018-Apr-23 17:00N 29°58' W 093°52'0 0.0
2018-Apr-23 16:27N 29°58' W 093°52'0 0.3
2018-Apr-23 16:00N 29°58' W 093°51'1 1.8
2018-Apr-23 15:30N 29°58' W 093°51'0 0.1
2018-Apr-23 15:00N 29°58' W 093°51'0 0.0
2018-Apr-23 14:30N 29°58' W 093°51'1 1.7
2018-Apr-23 14:00N 29°58' W 093°51'1 1.7
2018-Apr-23 13:28N 29°58' W 093°51'0 0.0
2018-Apr-23 09:04N 29°58' W 093°51'0 0.8
2018-Apr-23 08:58N 29°58' W 093°51'0 0.0
2018-Apr-23 08:28N 29°58' W 093°51'0 0.0
2018-Apr-23 08:01N 29°58' W 093°51'0 0.0
2018-Apr-23 07:31N 29°58' W 093°51'0 0.0
2018-Apr-23 06:58N 29°58' W 093°51'0 0.0
2018-Apr-23 06:30N 29°58' W 093°51'0 0.0
2018-Apr-23 06:00N 29°58' W 093°51'0 0.0
2018-Apr-23 05:30N 29°58' W 093°51'0 0.0
2018-Apr-23 05:00N 29°58' W 093°51'1 1.1
2018-Apr-23 04:30N 29°58' W 093°51'3 6.3
2018-Apr-23 04:00N 29°59' W 093°55'4 8.5
2018-Apr-23 03:30N 30°01' W 093°59'2 3.8
2018-Apr-23 03:00N 30°01' W 094°02'2 4.3
2018-Apr-23 02:30N 30°01' W 093°59'3 6.5
2018-Apr-23 02:00N 29°59' W 093°56'4 7.1
2018-Apr-23 01:30N 29°59' W 093°52'1 1.6
2018-Apr-23 00:58N 29°58' W 093°51'0 0.0
2018-Apr-23 00:25N 29°58' W 093°51'3 6.2
2018-Apr-23 00:00N 29°56' W 093°52'3 7.0
2018-Apr-22 23:30N 29°53' W 093°55'4 7.0
2018-Apr-22 23:00N 29°51' W 093°57'1 1.8
2018-Apr-22 22:30N 29°50' W 093°57'5 9.8
2018-Apr-22 22:00N 29°54' W 093°54'5 9.8
2018-Apr-22 21:30N 29°58' W 093°51'1 1.0
2018-Apr-22 21:00N 29°58' W 093°51'0 0.0
2018-Apr-22 20:30N 29°58' W 093°51'0 0.1
2018-Apr-22 20:00N 29°58' W 093°51'0 0.1
2018-Apr-22 19:30N 29°58' W 093°51'0 0.0
2018-Apr-22 19:00N 29°58' W 093°51'0 0.0
2018-Apr-22 18:29N 29°58' W 093°51'0 0.1
2018-Apr-22 18:00N 29°58' W 093°51'0 0.1
2018-Apr-22 17:30N 29°58' W 093°51'0 0.0
2018-Apr-22 17:00N 29°58' W 093°51'0 0.0
2018-Apr-22 16:30N 29°58' W 093°51'0 0.0
2018-Apr-22 16:00N 29°58' W 093°51'0 0.0
2018-Apr-22 15:30N 29°58' W 093°51'0 0.0
2018-Apr-22 15:00N 29°58' W 093°51'1 2.6
2018-Apr-22 14:30N 29°59' W 093°52'4 7.6
2018-Apr-22 14:00N 29°60' W 093°57'3 6.6
2018-Apr-22 13:30N 30°01' W 094°00'1 2.5
2018-Apr-22 13:00N 30°01' W 094°02'3 5.4
2018-Apr-22 12:30N 30°01' W 093°59'2 4.4
2018-Apr-22 12:00N 29°60' W 093°56'3 6.3
2018-Apr-22 11:30N 29°59' W 093°53'2 3.4
2018-Apr-22 10:59N 29°58' W 093°51'0 0.1
2018-Apr-22 10:26N 29°58' W 093°51'0 0.0
2018-Apr-22 08:37N 29°58' W 093°51'0 0.0
2018-Apr-22 08:29N 29°58' W 093°51'0 0.3
2018-Apr-22 08:00N 29°58' W 093°51'0 0.0
2018-Apr-22 07:30N 29°58' W 093°51'0 0.0
2018-Apr-22 07:00N 29°58' W 093°51'0 0.0
2018-Apr-22 06:30N 29°58' W 093°51'0 0.0
2018-Apr-22 06:01N 29°58' W 093°51'0 0.0
2018-Apr-22 05:30N 29°58' W 093°51'0 0.0
2018-Apr-22 05:00N 29°58' W 093°51'0 0.0
2018-Apr-22 04:30N 29°58' W 093°51'0 0.0
2018-Apr-22 04:00N 29°58' W 093°51'0 0.0
2018-Apr-22 03:30N 29°58' W 093°51'0 0.0
2018-Apr-22 03:00N 29°58' W 093°51'0 0.0
2018-Apr-22 02:30N 29°58' W 093°51'0 0.0
2018-Apr-22 02:00N 29°58' W 093°51'0 0.0
2018-Apr-22 01:30N 29°58' W 093°51'0 0.0
2018-Apr-22 01:00N 29°58' W 093°51'0 0.0
2018-Apr-22 00:31N 29°58' W 093°51'0 0.0
2018-Apr-22 00:00N 29°58' W 093°51'2 3.6
2018-Apr-21 23:30N 29°57' W 093°52'4 7.7
2018-Apr-21 23:01N 29°54' W 093°55'4 7.8
2018-Apr-21 22:30N 29°50' W 093°57'0 0.3
2018-Apr-21 22:00N 29°51' W 093°57'4 8.1
2018-Apr-21 21:30N 29°54' W 093°54'2 3.8
2018-Apr-21 21:00N 29°55' W 093°53'2 4.4
2018-Apr-21 20:30N 29°57' W 093°52'1 2.3
2018-Apr-21 20:00N 29°58' W 093°51'0 0.4
2018-Apr-21 19:30N 29°58' W 093°51'0 0.1
2018-Apr-21 19:00N 29°58' W 093°51'0 0.0
2018-Apr-21 18:31N 29°58' W 093°51'0 0.0
2018-Apr-21 18:00N 29°58' W 093°51'0 0.0
2018-Apr-21 17:31N 29°58' W 093°51'0 0.0
2018-Apr-21 17:00N 29°58' W 093°51'0 0.0
2018-Apr-21 16:30N 29°58' W 093°51'0 0.0
2018-Apr-21 16:00N 29°58' W 093°51'0 0.0
2018-Apr-21 15:30N 29°58' W 093°51'0 0.0
2018-Apr-21 15:00N 29°58' W 093°51'0 0.0
2018-Apr-21 14:30N 29°58' W 093°51'0 0.0
2018-Apr-21 14:00N 29°58' W 093°51'0 0.0
2018-Apr-21 13:30N 29°58' W 093°51'0 0.0
2018-Apr-21 13:00N 29°58' W 093°51'0 0.0
2018-Apr-21 12:30N 29°58' W 093°51'0 0.0
2018-Apr-21 12:00N 29°58' W 093°51'0 0.6
2018-Apr-21 11:30N 29°58' W 093°51'3 5.6
2018-Apr-21 11:00N 29°56' W 093°53'3 6.1
2018-Apr-21 10:30N 29°53' W 093°55'3 5.9
2018-Apr-21 10:00N 29°51' W 093°57'1 1.1
2018-Apr-21 08:51N 29°51' W 093°58'1 3.1
2018-Apr-21 08:30N 29°50' W 093°57'0 0.0
2018-Apr-21 08:00N 29°50' W 093°57'0 0.0
2018-Apr-21 07:30N 29°50' W 093°57'0 0.8
2018-Apr-21 07:00N 29°50' W 093°58'1 2.7
2018-Apr-21 06:30N 29°51' W 093°57'3 6.3
2018-Apr-21 06:00N 29°53' W 093°55'4 8.7
2018-Apr-21 05:30N 29°57' W 093°52'2 3.1
2018-Apr-21 05:00N 29°58' W 093°51'0 0.0
2018-Apr-21 04:30N 29°58' W 093°51'0 0.0
2018-Apr-21 04:00N 29°58' W 093°51'0 0.0
2018-Apr-21 03:30N 29°58' W 093°51'3 5.0
2018-Apr-21 02:59N 29°59' W 093°48'4 7.6
2018-Apr-21 02:30N 30°01' W 093°45'2 4.3
2018-Apr-21 02:00N 30°03' W 093°44'0 0.0
2018-Apr-21 01:30N 30°03' W 093°44'0 0.0
2018-Apr-21 01:00N 30°03' W 093°44'1 2.8
2018-Apr-21 00:30N 30°02' W 093°44'4 7.6
2018-Apr-21 00:00N 29°59' W 093°47'4 7.2
2018-Apr-20 23:30N 29°58' W 093°51'3 6.3
2018-Apr-20 23:00N 29°60' W 093°55'0 0.0
2018-Apr-20 22:30N 29°60' W 093°55'1 1.9
2018-Apr-20 22:00N 29°59' W 093°54'3 5.3
2018-Apr-20 21:30N 29°58' W 093°51'0 0.0
2018-Apr-20 21:00N 29°58' W 093°51'0 0.0
2018-Apr-20 20:30N 29°58' W 093°51'0 0.0
2018-Apr-20 20:00N 29°58' W 093°51'0 0.0
2018-Apr-20 19:30N 29°58' W 093°51'0 0.0
2018-Apr-20 19:00N 29°58' W 093°51'0 0.0
2018-Apr-20 18:30N 29°58' W 093°51'0 0.0
2018-Apr-20 18:00N 29°58' W 093°51'0 0.3
2018-Apr-20 17:30N 29°58' W 093°51'2 4.8
2018-Apr-20 17:00N 29°59' W 093°54'3 5.8
2018-Apr-20 16:30N 29°60' W 093°57'2 5.0
2018-Apr-20 16:00N 30°01' W 093°60'3 5.3
2018-Apr-20 15:30N 30°02' W 094°02'0 0.0
2018-Apr-20 08:15N 30°03' W 094°02'0 0.0
2018-Apr-20 08:00N 30°03' W 094°02'0 0.0
2018-Apr-20 07:30N 30°03' W 094°02'0 0.0
2018-Apr-20 07:00N 30°03' W 094°02'0 0.0
2018-Apr-20 06:30N 30°03' W 094°02'0 0.0
2018-Apr-20 06:00N 30°03' W 094°02'0 0.0
2018-Apr-20 05:30N 30°03' W 094°02'0 0.0
2018-Apr-20 05:00N 30°03' W 094°02'0 0.0
2018-Apr-20 04:30N 30°03' W 094°02'0 0.0
2018-Apr-20 04:01N 30°03' W 094°02'0 0.0
2018-Apr-20 03:31N 30°03' W 094°02'1 2.0
2018-Apr-20 03:01N 30°02' W 094°02'2 4.5
2018-Apr-20 02:31N 30°01' W 093°59'2 3.8
2018-Apr-20 02:00N 30°00' W 093°57'2 4.4
2018-Apr-20 01:30N 29°59' W 093°55'2 4.8
2018-Apr-20 01:01N 29°59' W 093°52'1 2.5
2018-Apr-20 00:30N 29°58' W 093°51'0 0.0
2018-Apr-20 00:00N 29°58' W 093°51'1 3.0
2018-Apr-19 23:30N 29°57' W 093°52'4 7.7
2018-Apr-19 23:01N 29°54' W 093°54'4 7.6
2018-Apr-19 22:31N 29°51' W 093°57'1 2.2
2018-Apr-19 22:00N 29°50' W 093°58'0 0.0
2018-Apr-19 21:30N 29°50' W 093°58'0 0.4
2018-Apr-19 21:01N 29°50' W 093°58'1 2.1
2018-Apr-19 20:30N 29°51' W 093°57'4 7.5
2018-Apr-19 20:01N 29°54' W 093°55'4 7.5
2018-Apr-19 19:31N 29°57' W 093°52'2 3.7
2018-Apr-19 19:01N 29°58' W 093°51'0 0.1
2018-Apr-19 18:31N 29°58' W 093°51'0 0.1
2018-Apr-19 18:00N 29°58' W 093°51'3 6.1
2018-Apr-19 17:31N 29°59' W 093°54'1 2.8
2018-Apr-19 17:00N 29°59' W 093°56'2 3.5
2018-Apr-19 16:31N 29°59' W 093°54'3 5.4
2018-Apr-19 16:00N 29°58' W 093°51'0 0.0
2018-Apr-19 15:31N 29°58' W 093°51'1 2.1
2018-Apr-19 15:00N 29°58' W 093°52'0 0.0
2018-Apr-19 14:30N 29°58' W 093°52'0 0.2
2018-Apr-19 14:01N 29°58' W 093°51'3 5.1
2018-Apr-19 13:30N 29°59' W 093°49'4 7.4
2018-Apr-19 13:01N 30°01' W 093°45'4 7.3
2018-Apr-19 12:31N 30°04' W 093°43'1 2.2
2018-Apr-19 11:57N 30°05' W 093°44'0 0.0
2018-Apr-19 11:24N 30°05' W 093°44'0 0.0
2018-Apr-19 10:56N 30°05' W 093°44'0 0.0
2018-Apr-19 10:28N 30°05' W 093°44'0 0.3
2018-Apr-19 09:02N 30°05' W 093°44'0 0.3
2018-Apr-19 09:00N 30°05' W 093°44'2 3.3
2018-Apr-19 08:30N 30°04' W 093°43'3 6.4
2018-Apr-19 08:00N 30°01' W 093°45'3 6.2
2018-Apr-19 07:30N 29°59' W 093°48'2 5.0
2018-Apr-19 07:00N 29°58' W 093°51'0 0.0
2018-Apr-19 06:31N 29°58' W 093°51'0 0.0
2018-Apr-19 06:00N 29°58' W 093°51'0 0.0
2018-Apr-19 05:30N 29°58' W 093°51'0 0.0
2018-Apr-19 05:00N 29°58' W 093°51'0 0.0
2018-Apr-19 04:30N 29°58' W 093°51'0 0.0
2018-Apr-19 04:00N 29°58' W 093°51'0 0.0
2018-Apr-19 03:30N 29°58' W 093°51'0 0.0
2018-Apr-19 03:00N 29°58' W 093°51'0 0.0
2018-Apr-19 02:31N 29°58' W 093°51'0 0.0
2018-Apr-19 02:01N 29°58' W 093°51'0 0.0
2018-Apr-19 01:30N 29°58' W 093°51'0 0.0
2018-Apr-19 01:00N 29°58' W 093°51'0 0.0
2018-Apr-19 00:31N 29°58' W 093°51'0 0.0
2018-Apr-19 00:00N 29°58' W 093°51'0 0.0
2018-Apr-18 23:30N 29°58' W 093°51'0 0.0
2018-Apr-18 23:00N 29°58' W 093°51'0 0.0
2018-Apr-18 22:30N 29°58' W 093°51'0 0.0
2018-Apr-18 22:00N 29°58' W 093°51'0 0.0
2018-Apr-18 21:30N 29°58' W 093°51'0 0.3
2018-Apr-18 21:00N 29°58' W 093°51'0 0.4
2018-Apr-18 20:30N 29°58' W 093°51'0 0.0
2018-Apr-18 20:00N 29°58' W 093°51'0 0.0
2018-Apr-18 19:30N 29°58' W 093°51'0 0.0
2018-Apr-18 18:59N 29°58' W 093°51'0 0.0
2018-Apr-18 18:30N 29°58' W 093°51'0 0.0
2018-Apr-18 18:00N 29°58' W 093°51'0 0.0
2018-Apr-18 17:30N 29°58' W 093°51'0 0.0
2018-Apr-18 16:59N 29°58' W 093°51'0 0.7
2018-Apr-18 16:30N 29°58' W 093°51'4 7.0
2018-Apr-18 16:00N 29°59' W 093°55'4 7.1
2018-Apr-18 15:30N 30°01' W 093°59'3 5.0
2018-Apr-18 15:00N 30°01' W 094°02'1 3.0
2018-Apr-18 14:30N 30°01' W 093°60'3 6.3
2018-Apr-18 14:00N 29°60' W 093°57'4 7.6
2018-Apr-18 13:30N 29°59' W 093°52'1 2.9
2018-Apr-18 13:01N 29°58' W 093°51'1 1.4
2018-Apr-18 12:30N 29°58' W 093°51'4 7.7
2018-Apr-18 11:59N 29°59' W 093°56'0 0.3
2018-Apr-18 11:30N 29°59' W 093°56'0 0.0
2018-Apr-18 11:00N 29°59' W 093°56'0 0.1
2018-Apr-18 10:30N 29°59' W 093°56'0 0.0
2018-Apr-18 10:00N 29°59' W 093°56'0 0.0
2018-Apr-18 08:52N 29°59' W 093°56'0 0.0
2018-Apr-18 08:29N 29°59' W 093°56'0 0.0
2018-Apr-18 08:00N 29°59' W 093°56'0 0.0
2018-Apr-18 07:28N 29°59' W 093°56'0 0.0
2018-Apr-18 07:00N 29°59' W 093°56'0 0.0
2018-Apr-18 06:31N 29°59' W 093°56'0 0.0
2018-Apr-18 05:04N 29°59' W 093°56'0 0.0
2018-Apr-18 04:58N 29°59' W 093°56'0 0.0
2018-Apr-18 04:31N 29°59' W 093°56'0 0.0
2018-Apr-18 04:01N 29°59' W 093°56'0 0.0
2018-Apr-18 03:31N 29°59' W 093°56'0 0.0
2018-Apr-18 03:01N 29°59' W 093°56'0 0.0
2018-Apr-18 02:31N 29°59' W 093°56'0 0.0
2018-Apr-18 02:01N 29°59' W 093°56'0 0.0
2018-Apr-18 01:31N 29°59' W 093°56'0 0.0
2018-Apr-18 00:54N 29°59' W 093°56'0 0.0
2018-Apr-18 00:30N 29°59' W 093°56'0 0.0
2018-Apr-18 00:01N 29°59' W 093°56'0 0.0
2018-Apr-17 23:30N 29°59' W 093°56'0 0.0
2018-Apr-17 23:01N 29°59' W 093°56'0 0.0
2018-Apr-17 22:31N 29°59' W 093°56'0 0.0
2018-Apr-17 22:01N 29°59' W 093°56'0 0.0
2018-Apr-17 21:31N 29°59' W 093°56'0 0.0
2018-Apr-17 21:01N 29°59' W 093°56'0 0.0
2018-Apr-17 20:31N 29°59' W 093°56'0 0.0
2018-Apr-17 20:00N 29°59' W 093°56'0 0.1
2018-Apr-17 19:30N 29°59' W 093°56'0 0.0
2018-Apr-17 19:00N 29°59' W 093°56'0 0.0
2018-Apr-17 18:30N 29°59' W 093°56'0 0.0
2018-Apr-17 18:01N 29°59' W 093°56'0 0.0
2018-Apr-17 17:31N 29°59' W 093°56'0 0.0
2018-Apr-17 17:00N 29°59' W 093°56'1 2.3
2018-Apr-17 16:31N 29°60' W 093°55'0 0.1
2018-Apr-17 16:01N 29°60' W 093°55'0 0.0
2018-Apr-17 15:31N 29°60' W 093°55'1 1.1
2018-Apr-17 15:01N 29°60' W 093°55'1 1.1
2018-Apr-17 14:30N 29°60' W 093°55'0 0.0
2018-Apr-17 09:49N 29°60' W 093°55'2 5.7
2018-Apr-17 09:30N 29°59' W 093°53'1 3.0
2018-Apr-17 09:00N 29°58' W 093°52'2 3.6
2018-Apr-17 08:30N 29°59' W 093°53'1 2.9
2018-Apr-17 08:00N 29°60' W 093°55'0 0.0
2018-Apr-17 07:30N 29°60' W 093°55'0 0.0
2018-Apr-17 07:00N 29°60' W 093°55'0 0.0
2018-Apr-17 06:30N 29°60' W 093°55'0 0.0
2018-Apr-17 06:00N 29°60' W 093°55'0 0.0
2018-Apr-17 05:30N 29°60' W 093°55'0 0.3
2018-Apr-17 05:00N 29°60' W 093°55'1 1.8
2018-Apr-17 04:30N 29°59' W 093°54'3 6.4
2018-Apr-17 04:00N 29°58' W 093°51'4 8.4
2018-Apr-17 03:30N 30°00' W 093°46'4 7.3
2018-Apr-17 03:00N 30°03' W 093°44'0 0.8
2018-Apr-17 02:28N 30°03' W 093°44'2 3.6
2018-Apr-17 01:53N 30°05' W 093°44'1 1.6
2018-Apr-17 01:29N 30°05' W 093°43'3 5.8
2018-Apr-17 01:00N 30°02' W 093°44'3 6.6
2018-Apr-17 00:30N 29°60' W 093°47'3 7.0
2018-Apr-17 00:00N 29°58' W 093°51'1 2.2
2018-Apr-16 23:29N 29°58' W 093°52'1 2.2
2018-Apr-16 23:00N 29°59' W 093°52'3 5.0
2018-Apr-16 22:30N 29°59' W 093°55'1 1.7
2018-Apr-16 22:00N 29°60' W 093°55'1 1.2
2018-Apr-16 21:30N 29°60' W 093°55'3 5.4
2018-Apr-16 20:56N 29°58' W 093°52'1 1.7
2018-Apr-16 20:30N 29°58' W 093°51'0 0.1
2018-Apr-16 20:00N 29°58' W 093°51'2 4.7
2018-Apr-16 19:30N 29°59' W 093°53'4 7.3
2018-Apr-16 19:00N 30°00' W 093°57'3 6.4
2018-Apr-16 18:30N 30°01' W 094°01'1 1.2
2018-Apr-16 18:00N 30°01' W 094°02'1 2.3
2018-Apr-16 17:30N 30°01' W 094°00'3 6.3
2018-Apr-16 17:00N 29°60' W 093°57'2 3.7
2018-Apr-16 16:30N 29°60' W 093°55'0 0.0
2018-Apr-16 16:00N 29°60' W 093°55'0 0.3
2018-Apr-16 15:30N 29°60' W 093°55'0 0.0
2018-Apr-16 15:00N 29°60' W 093°55'0 0.0
2018-Apr-16 14:30N 29°60' W 093°55'0 0.0
2018-Apr-16 14:00N 29°60' W 093°55'2 3.5
2018-Apr-16 13:30N 29°59' W 093°53'2 0.4
2018-Apr-16 08:54N 29°58' W 093°51'0 0.0
2018-Apr-16 08:30N 29°58' W 093°51'0 0.0
2018-Apr-16 08:00N 29°58' W 093°51'0 0.0
2018-Apr-16 07:30N 29°58' W 093°51'1 1.4
2018-Apr-16 07:00N 29°59' W 093°50'4 8.7
2018-Apr-16 06:30N 30°01' W 093°46'3 5.7
2018-Apr-16 06:00N 30°03' W 093°44'1 1.6
2018-Apr-16 05:30N 30°03' W 093°44'2 5.0
2018-Apr-16 05:00N 30°01' W 093°46'3 6.6
2018-Apr-16 04:30N 29°59' W 093°49'2 4.1
2018-Apr-16 04:00N 29°58' W 093°51'0 0.6
2018-Apr-16 03:30N 29°58' W 093°51'0 0.0
2018-Apr-16 03:00N 29°58' W 093°51'0 0.0
2018-Apr-16 02:30N 29°58' W 093°51'0 0.0
2018-Apr-16 02:00N 29°58' W 093°51'0 0.0
2018-Apr-16 01:30N 29°58' W 093°51'0 0.0
2018-Apr-16 01:00N 29°58' W 093°51'0 0.0
2018-Apr-16 00:30N 29°58' W 093°51'0 0.2
2018-Apr-16 00:00N 29°58' W 093°51'4 7.7
2018-Apr-15 23:30N 29°59' W 093°55'4 7.4
2018-Apr-15 22:59N 30°01' W 093°59'2 3.9
2018-Apr-15 22:30N 30°01' W 094°01'4 7.9
2018-Apr-15 22:00N 30°00' W 093°57'4 8.6
2018-Apr-15 21:30N 29°59' W 093°52'1 2.9
2018-Apr-15 21:00N 29°58' W 093°51'0 0.3
2018-Apr-15 20:30N 29°58' W 093°51'0 0.0
2018-Apr-15 20:00N 29°58' W 093°51'0 0.0
2018-Apr-15 19:30N 29°58' W 093°51'0 0.7
2018-Apr-15 19:00N 29°58' W 093°51'0 0.1
2018-Apr-15 18:30N 29°58' W 093°51'2 3.1
2018-Apr-15 18:00N 29°59' W 093°53'0 0.0
2018-Apr-15 17:30N 29°59' W 093°53'0 0.0
2018-Apr-15 17:00N 29°59' W 093°53'0 0.0
2018-Apr-15 16:30N 29°59' W 093°53'0 0.0
2018-Apr-15 16:00N 29°59' W 093°53'0 0.0
2018-Apr-15 15:30N 29°59' W 093°53'0 0.0
2018-Apr-15 15:00N 29°59' W 093°53'0 0.0
2018-Apr-15 14:30N 29°59' W 093°53'0 0.0
2018-Apr-15 14:00N 29°59' W 093°53'0 0.0
2018-Apr-15 13:30N 29°59' W 093°53'0 0.0
2018-Apr-15 13:00N 29°59' W 093°53'0 0.0
2018-Apr-15 12:30N 29°59' W 093°53'0 0.0
2018-Apr-15 12:00N 29°59' W 093°53'0 0.0
2018-Apr-15 11:30N 29°59' W 093°53'0 0.0
2018-Apr-15 11:00N 29°59' W 093°53'0 0.0
2018-Apr-15 10:30N 29°59' W 093°53'0 0.0
2018-Apr-15 10:00N 29°59' W 093°53'0 0.0
2018-Apr-15 09:30N 29°59' W 093°53'0 0.0
2018-Apr-15 09:00N 29°59' W 093°53'0 0.0
2018-Apr-15 08:30N 29°59' W 093°53'0 0.0
2018-Apr-15 08:00N 29°59' W 093°53'0 0.0
2018-Apr-15 07:30N 29°59' W 093°53'0 0.0
2018-Apr-15 07:00N 29°59' W 093°53'0 0.0
2018-Apr-15 06:30N 29°59' W 093°53'0 0.0
2018-Apr-15 06:00N 29°59' W 093°53'0 0.0
2018-Apr-15 05:30N 29°59' W 093°53'0 0.0
2018-Apr-15 05:00N 29°59' W 093°53'0 0.0
2018-Apr-15 04:30N 29°59' W 093°53'0 0.0
2018-Apr-15 04:00N 29°59' W 093°53'0 0.0
2018-Apr-15 03:30N 29°59' W 093°53'2 3.1
2018-Apr-15 03:00N 29°58' W 093°51'0 0.2
2018-Apr-15 02:29N 29°58' W 093°51'0 0.0
2018-Apr-15 02:00N 29°58' W 093°51'0 0.0
2018-Apr-15 01:30N 29°58' W 093°51'0 0.0
2018-Apr-15 01:00N 29°58' W 093°51'0 0.0
2018-Apr-15 00:29N 29°58' W 093°51'0 0.0
2018-Apr-15 00:00N 29°58' W 093°51'0 0.0
2018-Apr-14 23:28N 29°58' W 093°51'0 0.0
2018-Apr-14 23:00N 29°58' W 093°51'0 0.0
2018-Apr-14 22:30N 29°58' W 093°51'0 0.2
2018-Apr-14 22:00N 29°58' W 093°51'2 4.1
2018-Apr-14 21:30N 29°59' W 093°53'1 1.2
2018-Apr-14 21:00N 29°59' W 093°53'0 0.4
2018-Apr-14 20:29N 29°59' W 093°53'2 4.1
2018-Apr-14 20:00N 29°60' W 093°55'0 0.0
2018-Apr-14 19:30N 29°60' W 093°55'2 3.8
2018-Apr-14 19:00N 29°59' W 093°53'3 5.0
2018-Apr-14 18:30N 29°57' W 093°52'3 7.0
2018-Apr-14 18:00N 29°54' W 093°54'4 7.1
2018-Apr-14 17:30N 29°51' W 093°57'2 3.2
2018-Apr-14 17:00N 29°50' W 093°58'0 0.8
2018-Apr-14 16:30N 29°50' W 093°57'  
Track history (hours):
 
Tides and Currents Weather Stations Pressure Air Temp Water Temp Dewpoint Dewpoint Depression Visibility Wind Speed Wind Dir Waves Ship Positions

City Of Freeport

Owner: Kirby Inland Marine LP, Houston, TX. More information available from US FCC via Universal Licensing System and Coast Guard Vessel Documentation Center.

Last reported at 2018-Apr-24 16:00 UTC. Time now 2018-Apr-24 16:26 UTC.
Position N 29°60' W 093°55'.

Length 114 m; draft 2.3 m.

Type: . MMSI: 366995980.

Date/timePositionNaut miles runAvg speedWind from/ knotsBaromVisibWave heightAir tempDewpointWater temp
2018-Apr-24 16:00N 29°60' W 093°55'0 0.0
2018-Apr-24 15:30N 29°60' W 093°55'0 0.6
2018-Apr-24 15:00N 29°60' W 093°55'3 6.3
2018-Apr-24 14:30N 30°01' W 093°58'3 5.6
2018-Apr-24 14:00N 30°01' W 094°02'0 0.0
2018-Apr-24 13:30N 30°01' W 094°02'2 4.6
2018-Apr-24 13:00N 30°01' W 093°59'3 6.8
2018-Apr-24 12:30N 29°59' W 093°55'4 7.2
2018-Apr-24 12:00N 29°58' W 093°51'1 0.2
2018-Apr-24 09:11N 29°58' W 093°51'0 0.6
2018-Apr-24 09:00N 29°58' W 093°51'0 0.0
2018-Apr-24 08:30N 29°58' W 093°51'0 0.0
2018-Apr-24 08:00N 29°58' W 093°51'0 0.0
2018-Apr-24 07:31N 29°58' W 093°51'0 0.0
2018-Apr-24 07:00N 29°58' W 093°51'0 0.0
2018-Apr-24 06:31N 29°58' W 093°51'0 0.0
2018-Apr-24 06:01N 29°58' W 093°51'0 0.0
2018-Apr-24 05:31N 29°58' W 093°51'0 0.0
2018-Apr-24 05:00N 29°58' W 093°51'0 0.0
2018-Apr-24 04:29N 29°58' W 093°51'0 0.0
2018-Apr-24 04:00N 29°58' W 093°51'0 0.0
2018-Apr-24 03:31N 29°58' W 093°51'0 0.0
2018-Apr-24 03:01N 29°58' W 093°51'0 0.0
2018-Apr-24 02:30N 29°58' W 093°51'1 1.9
2018-Apr-24 02:00N 29°58' W 093°52'0 0.0
2018-Apr-24 01:30N 29°58' W 093°52'0 0.0
2018-Apr-24 01:01N 29°58' W 093°52'1 2.0
2018-Apr-24 00:28N 29°58' W 093°51'0 0.0
2018-Apr-23 23:58N 29°58' W 093°51'0 0.0
2018-Apr-23 23:28N 29°58' W 093°51'0 0.4
2018-Apr-23 23:00N 29°58' W 093°51'1 2.1
2018-Apr-23 22:30N 29°58' W 093°52'1 2.1
2018-Apr-23 22:00N 29°58' W 093°51'4 7.1
2018-Apr-23 21:30N 29°55' W 093°53'2 3.3
2018-Apr-23 21:00N 29°54' W 093°54'5 9.3
2018-Apr-23 20:30N 29°50' W 093°57'1 1.5
2018-Apr-23 20:00N 29°50' W 093°58'2 4.0
2018-Apr-23 19:30N 29°51' W 093°57'3 5.4
2018-Apr-23 19:00N 29°54' W 093°55'3 5.3
2018-Apr-23 18:30N 29°56' W 093°53'3 5.9
2018-Apr-23 18:00N 29°58' W 093°51'1 1.4
2018-Apr-23 17:30N 29°58' W 093°51'0 0.2
2018-Apr-23 17:00N 29°58' W 093°52'0 0.0
2018-Apr-23 16:27N 29°58' W 093°52'0 0.3
2018-Apr-23 16:00N 29°58' W 093°51'1 1.8
2018-Apr-23 15:30N 29°58' W 093°51'0 0.1
2018-Apr-23 15:00N 29°58' W 093°51'0 0.0
2018-Apr-23 14:30N 29°58' W 093°51'1 1.7
2018-Apr-23 14:00N 29°58' W 093°51'1 1.7
2018-Apr-23 13:28N 29°58' W 093°51'0 0.0
2018-Apr-23 09:04N 29°58' W 093°51'0 0.8
2018-Apr-23 08:58N 29°58' W 093°51'0 0.0
2018-Apr-23 08:28N 29°58' W 093°51'0 0.0
2018-Apr-23 08:01N 29°58' W 093°51'0 0.0
2018-Apr-23 07:31N 29°58' W 093°51'0 0.0
2018-Apr-23 06:58N 29°58' W 093°51'0 0.0
2018-Apr-23 06:30N 29°58' W 093°51'0 0.0
2018-Apr-23 06:00N 29°58' W 093°51'0 0.0
2018-Apr-23 05:30N 29°58' W 093°51'0 0.0
2018-Apr-23 05:00N 29°58' W 093°51'1 1.1
2018-Apr-23 04:30N 29°58' W 093°51'3 6.3
2018-Apr-23 04:00N 29°59' W 093°55'4 8.5
2018-Apr-23 03:30N 30°01' W 093°59'2 3.8
2018-Apr-23 03:00N 30°01' W 094°02'2 4.3
2018-Apr-23 02:30N 30°01' W 093°59'3 6.5
2018-Apr-23 02:00N 29°59' W 093°56'4 7.1
2018-Apr-23 01:30N 29°59' W 093°52'1 1.6
2018-Apr-23 00:58N 29°58' W 093°51'0 0.0
2018-Apr-23 00:25N 29°58' W 093°51'3 6.2
2018-Apr-23 00:00N 29°56' W 093°52'3 7.0
2018-Apr-22 23:30N 29°53' W 093°55'4 7.0
2018-Apr-22 23:00N 29°51' W 093°57'1 1.8
2018-Apr-22 22:30N 29°50' W 093°57'5 9.8
2018-Apr-22 22:00N 29°54' W 093°54'5 9.8
2018-Apr-22 21:30N 29°58' W 093°51'1 1.0
2018-Apr-22 21:00N 29°58' W 093°51'0 0.0
2018-Apr-22 20:30N 29°58' W 093°51'0 0.1
2018-Apr-22 20:00N 29°58' W 093°51'0 0.1
2018-Apr-22 19:30N 29°58' W 093°51'0 0.0
2018-Apr-22 19:00N 29°58' W 093°51'0 0.0
2018-Apr-22 18:29N 29°58' W 093°51'0 0.1
2018-Apr-22 18:00N 29°58' W 093°51'0 0.1
2018-Apr-22 17:30N 29°58' W 093°51'0 0.0
2018-Apr-22 17:00N 29°58' W 093°51'0 0.0
2018-Apr-22 16:30N 29°58' W 093°51'0 0.0
2018-Apr-22 16:00N 29°58' W 093°51'0 0.0
2018-Apr-22 15:30N 29°58' W 093°51'0 0.0
2018-Apr-22 15:00N 29°58' W 093°51'1 2.6
2018-Apr-22 14:30N 29°59' W 093°52'4 7.6
2018-Apr-22 14:00N 29°60' W 093°57'3 6.6
2018-Apr-22 13:30N 30°01' W 094°00'1 2.5
2018-Apr-22 13:00N 30°01' W 094°02'3 5.4
2018-Apr-22 12:30N 30°01' W 093°59'2 4.4
2018-Apr-22 12:00N 29°60' W 093°56'3 6.3
2018-Apr-22 11:30N 29°59' W 093°53'2 3.4
2018-Apr-22 10:59N 29°58' W 093°51'0 0.1
2018-Apr-22 10:26N 29°58' W 093°51'0 0.0
2018-Apr-22 08:37N 29°58' W 093°51'0 0.0
2018-Apr-22 08:29N 29°58' W 093°51'0 0.3
2018-Apr-22 08:00N 29°58' W 093°51'0 0.0
2018-Apr-22 07:30N 29°58' W 093°51'0 0.0
2018-Apr-22 07:00N 29°58' W 093°51'0 0.0
2018-Apr-22 06:30N 29°58' W 093°51'0 0.0
2018-Apr-22 06:01N 29°58' W 093°51'0 0.0
2018-Apr-22 05:30N 29°58' W 093°51'0 0.0
2018-Apr-22 05:00N 29°58' W 093°51'0 0.0
2018-Apr-22 04:30N 29°58' W 093°51'0 0.0
2018-Apr-22 04:00N 29°58' W 093°51'0 0.0
2018-Apr-22 03:30N 29°58' W 093°51'0 0.0
2018-Apr-22 03:00N 29°58' W 093°51'0 0.0
2018-Apr-22 02:30N 29°58' W 093°51'0 0.0
2018-Apr-22 02:00N 29°58' W 093°51'0 0.0
2018-Apr-22 01:30N 29°58' W 093°51'0 0.0
2018-Apr-22 01:00N 29°58' W 093°51'0 0.0
2018-Apr-22 00:31N 29°58' W 093°51'0 0.0
2018-Apr-22 00:00N 29°58' W 093°51'2 3.6
2018-Apr-21 23:30N 29°57' W 093°52'4 7.7
2018-Apr-21 23:01N 29°54' W 093°55'4 7.8
2018-Apr-21 22:30N 29°50' W 093°57'0 0.3
2018-Apr-21 22:00N 29°51' W 093°57'4 8.1
2018-Apr-21 21:30N 29°54' W 093°54'2 3.8
2018-Apr-21 21:00N 29°55' W 093°53'2 4.4
2018-Apr-21 20:30N 29°57' W 093°52'1 2.3
2018-Apr-21 20:00N 29°58' W 093°51'0 0.4
2018-Apr-21 19:30N 29°58' W 093°51'0 0.1
2018-Apr-21 19:00N 29°58' W 093°51'0 0.0
2018-Apr-21 18:31N 29°58' W 093°51'0 0.0
2018-Apr-21 18:00N 29°58' W 093°51'0 0.0
2018-Apr-21 17:31N 29°58' W 093°51'0 0.0
2018-Apr-21 17:00N 29°58' W 093°51'0 0.0
2018-Apr-21 16:30N 29°58' W 093°51'0 0.0
2018-Apr-21 16:00N 29°58' W 093°51'0 0.0
2018-Apr-21 15:30N 29°58' W 093°51'0 0.0
2018-Apr-21 15:00N 29°58' W 093°51'0 0.0
2018-Apr-21 14:30N 29°58' W 093°51'0 0.0
2018-Apr-21 14:00N 29°58' W 093°51'0 0.0
2018-Apr-21 13:30N 29°58' W 093°51'0 0.0
2018-Apr-21 13:00N 29°58' W 093°51'0 0.0
2018-Apr-21 12:30N 29°58' W 093°51'0 0.0
2018-Apr-21 12:00N 29°58' W 093°51'0 0.6
2018-Apr-21 11:30N 29°58' W 093°51'3 5.6
2018-Apr-21 11:00N 29°56' W 093°53'3 6.1
2018-Apr-21 10:30N 29°53' W 093°55'3 5.9
2018-Apr-21 10:00N 29°51' W 093°57'1 1.1
2018-Apr-21 08:51N 29°51' W 093°58'1 3.1
2018-Apr-21 08:30N 29°50' W 093°57'0 0.0
2018-Apr-21 08:00N 29°50' W 093°57'0 0.0
2018-Apr-21 07:30N 29°50' W 093°57'0 0.8
2018-Apr-21 07:00N 29°50' W 093°58'1 2.7
2018-Apr-21 06:30N 29°51' W 093°57'3 6.3
2018-Apr-21 06:00N 29°53' W 093°55'4 8.7
2018-Apr-21 05:30N 29°57' W 093°52'2 3.1
2018-Apr-21 05:00N 29°58' W 093°51'0 0.0
2018-Apr-21 04:30N 29°58' W 093°51'0 0.0
2018-Apr-21 04:00N 29°58' W 093°51'0 0.0
2018-Apr-21 03:30N 29°58' W 093°51'3 5.0
2018-Apr-21 02:59N 29°59' W 093°48'4 7.6
2018-Apr-21 02:30N 30°01' W 093°45'2 4.3
2018-Apr-21 02:00N 30°03' W 093°44'0 0.0
2018-Apr-21 01:30N 30°03' W 093°44'0 0.0
2018-Apr-21 01:00N 30°03' W 093°44'1 2.8
2018-Apr-21 00:30N 30°02' W 093°44'4 7.6
2018-Apr-21 00:00N 29°59' W 093°47'4 7.2
2018-Apr-20 23:30N 29°58' W 093°51'3 6.3
2018-Apr-20 23:00N 29°60' W 093°55'0 0.0
2018-Apr-20 22:30N 29°60' W 093°55'1 1.9
2018-Apr-20 22:00N 29°59' W 093°54'3 5.3
2018-Apr-20 21:30N 29°58' W 093°51'0 0.0
2018-Apr-20 21:00N 29°58' W 093°51'0 0.0
2018-Apr-20 20:30N 29°58' W 093°51'0 0.0
2018-Apr-20 20:00N 29°58' W 093°51'0 0.0
2018-Apr-20 19:30N 29°58' W 093°51'0 0.0
2018-Apr-20 19:00N 29°58' W 093°51'0 0.0
2018-Apr-20 18:30N 29°58' W 093°51'0 0.0
2018-Apr-20 18:00N 29°58' W 093°51'0 0.3
2018-Apr-20 17:30N 29°58' W 093°51'2 4.8
2018-Apr-20 17:00N 29°59' W 093°54'3 5.8
2018-Apr-20 16:30N 29°60' W 093°57'2 5.0
2018-Apr-20 16:00N 30°01' W 093°60'3 5.3
2018-Apr-20 15:30N 30°02' W 094°02'0 0.0
2018-Apr-20 08:15N 30°03' W 094°02'0 0.0
2018-Apr-20 08:00N 30°03' W 094°02'0 0.0
2018-Apr-20 07:30N 30°03' W 094°02'0 0.0
2018-Apr-20 07:00N 30°03' W 094°02'0 0.0
2018-Apr-20 06:30N 30°03' W 094°02'0 0.0
2018-Apr-20 06:00N 30°03' W 094°02'0 0.0
2018-Apr-20 05:30N 30°03' W 094°02'0 0.0
2018-Apr-20 05:00N 30°03' W 094°02'0 0.0
2018-Apr-20 04:30N 30°03' W 094°02'0 0.0
2018-Apr-20 04:01N 30°03' W 094°02'0 0.0
2018-Apr-20 03:31N 30°03' W 094°02'1 2.0
2018-Apr-20 03:01N 30°02' W 094°02'2 4.5
2018-Apr-20 02:31N 30°01' W 093°59'2 3.8
2018-Apr-20 02:00N 30°00' W 093°57'2 4.4
2018-Apr-20 01:30N 29°59' W 093°55'2 4.8
2018-Apr-20 01:01N 29°59' W 093°52'1 2.5
2018-Apr-20 00:30N 29°58' W 093°51'0 0.0
2018-Apr-20 00:00N 29°58' W 093°51'1 3.0
2018-Apr-19 23:30N 29°57' W 093°52'4 7.7
2018-Apr-19 23:01N 29°54' W 093°54'4 7.6
2018-Apr-19 22:31N 29°51' W 093°57'1 2.2
2018-Apr-19 22:00N 29°50' W 093°58'0 0.0
2018-Apr-19 21:30N 29°50' W 093°58'0 0.4
2018-Apr-19 21:01N 29°50' W 093°58'1 2.1
2018-Apr-19 20:30N 29°51' W 093°57'4 7.5
2018-Apr-19 20:01N 29°54' W 093°55'4 7.5
2018-Apr-19 19:31N 29°57' W 093°52'2 3.7
2018-Apr-19 19:01N 29°58' W 093°51'0 0.1
2018-Apr-19 18:31N 29°58' W 093°51'0 0.1
2018-Apr-19 18:00N 29°58' W 093°51'3 6.1
2018-Apr-19 17:31N 29°59' W 093°54'1 2.8
2018-Apr-19 17:00N 29°59' W 093°56'2 3.5
2018-Apr-19 16:31N 29°59' W 093°54'3 5.4
2018-Apr-19 16:00N 29°58' W 093°51'0 0.0
2018-Apr-19 15:31N 29°58' W 093°51'1 2.1
2018-Apr-19 15:00N 29°58' W 093°52'0 0.0
2018-Apr-19 14:30N 29°58' W 093°52'0 0.2
2018-Apr-19 14:01N 29°58' W 093°51'3 5.1
2018-Apr-19 13:30N 29°59' W 093°49'4 7.4
2018-Apr-19 13:01N 30°01' W 093°45'4 7.3
2018-Apr-19 12:31N 30°04' W 093°43'1 2.2
2018-Apr-19 11:57N 30°05' W 093°44'0 0.0
2018-Apr-19 11:24N 30°05' W 093°44'0 0.0
2018-Apr-19 10:56N 30°05' W 093°44'0 0.0
2018-Apr-19 10:28N 30°05' W 093°44'0 0.3
2018-Apr-19 09:02N 30°05' W 093°44'0 0.3
2018-Apr-19 09:00N 30°05' W 093°44'2 3.3
2018-Apr-19 08:30N 30°04' W 093°43'3 6.4
2018-Apr-19 08:00N 30°01' W 093°45'3 6.2
2018-Apr-19 07:30N 29°59' W 093°48'2 5.0
2018-Apr-19 07:00N 29°58' W 093°51'0 0.0
2018-Apr-19 06:31N 29°58' W 093°51'0 0.0
2018-Apr-19 06:00N 29°58' W 093°51'0 0.0
2018-Apr-19 05:30N 29°58' W 093°51'0 0.0
2018-Apr-19 05:00N 29°58' W 093°51'0 0.0
2018-Apr-19 04:30N 29°58' W 093°51'0 0.0
2018-Apr-19 04:00N 29°58' W 093°51'0 0.0
2018-Apr-19 03:30N 29°58' W 093°51'0 0.0
2018-Apr-19 03:00N 29°58' W 093°51'0 0.0
2018-Apr-19 02:31N 29°58' W 093°51'0 0.0
2018-Apr-19 02:01N 29°58' W 093°51'0 0.0
2018-Apr-19 01:30N 29°58' W 093°51'0 0.0
2018-Apr-19 01:00N 29°58' W 093°51'0 0.0
2018-Apr-19 00:31N 29°58' W 093°51'0 0.0
2018-Apr-19 00:00N 29°58' W 093°51'0 0.0
2018-Apr-18 23:30N 29°58' W 093°51'0 0.0
2018-Apr-18 23:00N 29°58' W 093°51'0 0.0
2018-Apr-18 22:30N 29°58' W 093°51'0 0.0
2018-Apr-18 22:00N 29°58' W 093°51'0 0.0
2018-Apr-18 21:30N 29°58' W 093°51'0 0.3
2018-Apr-18 21:00N 29°58' W 093°51'0 0.4
2018-Apr-18 20:30N 29°58' W 093°51'0 0.0
2018-Apr-18 20:00N 29°58' W 093°51'0 0.0
2018-Apr-18 19:30N 29°58' W 093°51'0 0.0
2018-Apr-18 18:59N 29°58' W 093°51'0 0.0
2018-Apr-18 18:30N 29°58' W 093°51'0 0.0
2018-Apr-18 18:00N 29°58' W 093°51'0 0.0
2018-Apr-18 17:30N 29°58' W 093°51'0 0.0
2018-Apr-18 16:59N 29°58' W 093°51'0 0.7
2018-Apr-18 16:30N 29°58' W 093°51'4 7.0
2018-Apr-18 16:00N 29°59' W 093°55'4 7.1
2018-Apr-18 15:30N 30°01' W 093°59'3 5.0
2018-Apr-18 15:00N 30°01' W 094°02'1 3.0
2018-Apr-18 14:30N 30°01' W 093°60'3 6.3
2018-Apr-18 14:00N 29°60' W 093°57'4 7.6
2018-Apr-18 13:30N 29°59' W 093°52'1 2.9
2018-Apr-18 13:01N 29°58' W 093°51'1 1.4
2018-Apr-18 12:30N 29°58' W 093°51'4 7.7
2018-Apr-18 11:59N 29°59' W 093°56'0 0.3
2018-Apr-18 11:30N 29°59' W 093°56'0 0.0
2018-Apr-18 11:00N 29°59' W 093°56'0 0.1
2018-Apr-18 10:30N 29°59' W 093°56'0 0.0
2018-Apr-18 10:00N 29°59' W 093°56'0 0.0
2018-Apr-18 08:52N 29°59' W 093°56'0 0.0
2018-Apr-18 08:29N 29°59' W 093°56'0 0.0
2018-Apr-18 08:00N 29°59' W 093°56'0 0.0
2018-Apr-18 07:28N 29°59' W 093°56'0 0.0
2018-Apr-18 07:00N 29°59' W 093°56'0 0.0
2018-Apr-18 06:31N 29°59' W 093°56'0 0.0
2018-Apr-18 05:04N 29°59' W 093°56'0 0.0
2018-Apr-18 04:58N 29°59' W 093°56'0 0.0
2018-Apr-18 04:31N 29°59' W 093°56'0 0.0
2018-Apr-18 04:01N 29°59' W 093°56'0 0.0
2018-Apr-18 03:31N 29°59' W 093°56'0 0.0
2018-Apr-18 03:01N 29°59' W 093°56'0 0.0
2018-Apr-18 02:31N 29°59' W 093°56'0 0.0
2018-Apr-18 02:01N 29°59' W 093°56'0 0.0
2018-Apr-18 01:31N 29°59' W 093°56'0 0.0
2018-Apr-18 00:54N 29°59' W 093°56'0 0.0
2018-Apr-18 00:30N 29°59' W 093°56'0 0.0
2018-Apr-18 00:01N 29°59' W 093°56'0 0.0
2018-Apr-17 23:30N 29°59' W 093°56'0 0.0
2018-Apr-17 23:01N 29°59' W 093°56'0 0.0
2018-Apr-17 22:31N 29°59' W 093°56'0 0.0
2018-Apr-17 22:01N 29°59' W 093°56'0 0.0
2018-Apr-17 21:31N 29°59' W 093°56'0 0.0
2018-Apr-17 21:01N 29°59' W 093°56'0 0.0
2018-Apr-17 20:31N 29°59' W 093°56'0 0.0
2018-Apr-17 20:00N 29°59' W 093°56'0 0.1
2018-Apr-17 19:30N 29°59' W 093°56'0 0.0
2018-Apr-17 19:00N 29°59' W 093°56'0 0.0
2018-Apr-17 18:30N 29°59' W 093°56'0 0.0
2018-Apr-17 18:01N 29°59' W 093°56'0 0.0
2018-Apr-17 17:31N 29°59' W 093°56'0 0.0
2018-Apr-17 17:00N 29°59' W 093°56'1 2.3
2018-Apr-17 16:31N 29°60' W 093°55'0 0.1
2018-Apr-17 16:01N 29°60' W 093°55'0 0.0
2018-Apr-17 15:31N 29°60' W 093°55'1 1.1
2018-Apr-17 15:01N 29°60' W 093°55'1 1.1
2018-Apr-17 14:30N 29°60' W 093°55'0 0.0
2018-Apr-17 09:49N 29°60' W 093°55'2 5.7
2018-Apr-17 09:30N 29°59' W 093°53'1 3.0
2018-Apr-17 09:00N 29°58' W 093°52'2 3.6
2018-Apr-17 08:30N 29°59' W 093°53'1 2.9
2018-Apr-17 08:00N 29°60' W 093°55'0 0.0
2018-Apr-17 07:30N 29°60' W 093°55'0 0.0
2018-Apr-17 07:00N 29°60' W 093°55'0 0.0
2018-Apr-17 06:30N 29°60' W 093°55'0 0.0
2018-Apr-17 06:00N 29°60' W 093°55'0 0.0
2018-Apr-17 05:30N 29°60' W 093°55'0 0.3
2018-Apr-17 05:00N 29°60' W 093°55'1 1.8
2018-Apr-17 04:30N 29°59' W 093°54'3 6.4
2018-Apr-17 04:00N 29°58' W 093°51'4 8.4
2018-Apr-17 03:30N 30°00' W 093°46'4 7.3
2018-Apr-17 03:00N 30°03' W 093°44'0 0.8
2018-Apr-17 02:28N 30°03' W 093°44'2 3.6
2018-Apr-17 01:53N 30°05' W 093°44'1 1.6
2018-Apr-17 01:29N 30°05' W 093°43'3 5.8
2018-Apr-17 01:00N 30°02' W 093°44'3 6.6
2018-Apr-17 00:30N 29°60' W 093°47'3 7.0
2018-Apr-17 00:00N 29°58' W 093°51'1 2.2
2018-Apr-16 23:29N 29°58' W 093°52'1 2.2
2018-Apr-16 23:00N 29°59' W 093°52'3 5.0
2018-Apr-16 22:30N 29°59' W 093°55'1 1.7
2018-Apr-16 22:00N 29°60' W 093°55'1 1.2
2018-Apr-16 21:30N 29°60' W 093°55'3 5.4
2018-Apr-16 20:56N 29°58' W 093°52'1 1.7
2018-Apr-16 20:30N 29°58' W 093°51'0 0.1
2018-Apr-16 20:00N 29°58' W 093°51'2 4.7
2018-Apr-16 19:30N 29°59' W 093°53'4 7.3
2018-Apr-16 19:00N 30°00' W 093°57'3 6.4
2018-Apr-16 18:30N 30°01' W 094°01'1 1.2
2018-Apr-16 18:00N 30°01' W 094°02'1 2.3
2018-Apr-16 17:30N 30°01' W 094°00'3 6.3
2018-Apr-16 17:00N 29°60' W 093°57'2 3.7
2018-Apr-16 16:30N 29°60' W 093°55'0 0.0
2018-Apr-16 16:00N 29°60' W 093°55'0 0.3
2018-Apr-16 15:30N 29°60' W 093°55'0 0.0
2018-Apr-16 15:00N 29°60' W 093°55'0 0.0
2018-Apr-16 14:30N 29°60' W 093°55'0 0.0
2018-Apr-16 14:00N 29°60' W 093°55'2 3.5
2018-Apr-16 13:30N 29°59' W 093°53'2 0.4
2018-Apr-16 08:54N 29°58' W 093°51'0 0.0
2018-Apr-16 08:30N 29°58' W 093°51'0 0.0
2018-Apr-16 08:00N 29°58' W 093°51'0 0.0
2018-Apr-16 07:30N 29°58' W 093°51'1 1.4
2018-Apr-16 07:00N 29°59' W 093°50'4 8.7
2018-Apr-16 06:30N 30°01' W 093°46'3 5.7
2018-Apr-16 06:00N 30°03' W 093°44'1 1.6
2018-Apr-16 05:30N 30°03' W 093°44'2 5.0
2018-Apr-16 05:00N 30°01' W 093°46'3 6.6
2018-Apr-16 04:30N 29°59' W 093°49'2 4.1
2018-Apr-16 04:00N 29°58' W 093°51'0 0.6
2018-Apr-16 03:30N 29°58' W 093°51'0 0.0
2018-Apr-16 03:00N 29°58' W 093°51'0 0.0
2018-Apr-16 02:30N 29°58' W 093°51'0 0.0
2018-Apr-16 02:00N 29°58' W 093°51'0 0.0
2018-Apr-16 01:30N 29°58' W 093°51'0 0.0
2018-Apr-16 01:00N 29°58' W 093°51'0 0.0
2018-Apr-16 00:30N 29°58' W 093°51'0 0.2
2018-Apr-16 00:00N 29°58' W 093°51'4 7.7
2018-Apr-15 23:30N 29°59' W 093°55'4 7.4
2018-Apr-15 22:59N 30°01' W 093°59'2 3.9
2018-Apr-15 22:30N 30°01' W 094°01'4 7.9
2018-Apr-15 22:00N 30°00' W 093°57'4 8.6
2018-Apr-15 21:30N 29°59' W 093°52'1 2.9
2018-Apr-15 21:00N 29°58' W 093°51'0 0.3
2018-Apr-15 20:30N 29°58' W 093°51'0 0.0
2018-Apr-15 20:00N 29°58' W 093°51'0 0.0
2018-Apr-15 19:30N 29°58' W 093°51'0 0.7
2018-Apr-15 19:00N 29°58' W 093°51'0 0.1
2018-Apr-15 18:30N 29°58' W 093°51'2 3.1
2018-Apr-15 18:00N 29°59' W 093°53'0 0.0
2018-Apr-15 17:30N 29°59' W 093°53'0 0.0
2018-Apr-15 17:00N 29°59' W 093°53'0 0.0
2018-Apr-15 16:30N 29°59' W 093°53'0 0.0
2018-Apr-15 16:00N 29°59' W 093°53'0 0.0
2018-Apr-15 15:30N 29°59' W 093°53'0 0.0
2018-Apr-15 15:00N 29°59' W 093°53'0 0.0
2018-Apr-15 14:30N 29°59' W 093°53'0 0.0
2018-Apr-15 14:00N 29°59' W 093°53'0 0.0
2018-Apr-15 13:30N 29°59' W 093°53'0 0.0
2018-Apr-15 13:00N 29°59' W 093°53'0 0.0
2018-Apr-15 12:30N 29°59' W 093°53'0 0.0
2018-Apr-15 12:00N 29°59' W 093°53'0 0.0
2018-Apr-15 11:30N 29°59' W 093°53'0 0.0
2018-Apr-15 11:00N 29°59' W 093°53'0 0.0
2018-Apr-15 10:30N 29°59' W 093°53'0 0.0
2018-Apr-15 10:00N 29°59' W 093°53'0 0.0
2018-Apr-15 09:30N 29°59' W 093°53'0 0.0
2018-Apr-15 09:00N 29°59' W 093°53'0 0.0
2018-Apr-15 08:30N 29°59' W 093°53'0 0.0
2018-Apr-15 08:00N 29°59' W 093°53'0 0.0
2018-Apr-15 07:30N 29°59' W 093°53'0 0.0
2018-Apr-15 07:00N 29°59' W 093°53'0 0.0
2018-Apr-15 06:30N 29°59' W 093°53'0 0.0
2018-Apr-15 06:00N 29°59' W 093°53'0 0.0
2018-Apr-15 05:30N 29°59' W 093°53'0 0.0
2018-Apr-15 05:00N 29°59' W 093°53'0 0.0
2018-Apr-15 04:30N 29°59' W 093°53'0 0.0
2018-Apr-15 04:00N 29°59' W 093°53'0 0.0
2018-Apr-15 03:30N 29°59' W 093°53'2 3.1
2018-Apr-15 03:00N 29°58' W 093°51'0 0.2
2018-Apr-15 02:29N 29°58' W 093°51'0 0.0
2018-Apr-15 02:00N 29°58' W 093°51'0 0.0
2018-Apr-15 01:30N 29°58' W 093°51'0 0.0
2018-Apr-15 01:00N 29°58' W 093°51'0 0.0
2018-Apr-15 00:29N 29°58' W 093°51'0 0.0
2018-Apr-15 00:00N 29°58' W 093°51'0 0.0
2018-Apr-14 23:28N 29°58' W 093°51'0 0.0
2018-Apr-14 23:00N 29°58' W 093°51'0 0.0
2018-Apr-14 22:30N 29°58' W 093°51'0 0.2
2018-Apr-14 22:00N 29°58' W 093°51'2 4.1
2018-Apr-14 21:30N 29°59' W 093°53'1 1.2
2018-Apr-14 21:00N 29°59' W 093°53'0 0.4
2018-Apr-14 20:29N 29°59' W 093°53'2 4.1
2018-Apr-14 20:00N 29°60' W 093°55'0 0.0
2018-Apr-14 19:30N 29°60' W 093°55'2 3.8
2018-Apr-14 19:00N 29°59' W 093°53'3 5.0
2018-Apr-14 18:30N 29°57' W 093°52'3 7.0
2018-Apr-14 18:00N 29°54' W 093°54'4 7.1
2018-Apr-14 17:30N 29°51' W 093°57'2 3.2
2018-Apr-14 17:00N 29°50' W 093°58'0 0.8
2018-Apr-14 16:30N 29°50' W 093°57'  

Dump ship's entire track history